sensor_id;sensor_type;location;lat;lon;timestamp;P1;durP1;ratioP1;P2;durP2;ratioP2
4232;SDS011;2130;48.472;11.934;2023-06-22T00:00:36;8.73;;;2.27;;
4232;SDS011;2130;48.472;11.934;2023-06-22T00:03:05;9.33;;;1.67;;
4232;SDS011;2130;48.472;11.934;2023-06-22T00:05:34;8.50;;;1.93;;
4232;SDS011;2130;48.472;11.934;2023-06-22T00:08:03;7.83;;;1.63;;
4232;SDS011;2130;48.472;11.934;2023-06-22T00:10:33;8.07;;;2.27;;
4232;SDS011;2130;48.472;11.934;2023-06-22T00:13:01;7.10;;;1.50;;
4232;SDS011;2130;48.472;11.934;2023-06-22T00:15:30;7.83;;;1.70;;
4232;SDS011;2130;48.472;11.934;2023-06-22T00:17:58;7.07;;;1.97;;
4232;SDS011;2130;48.472;11.934;2023-06-22T00:20:26;10.03;;;1.80;;
4232;SDS011;2130;48.472;11.934;2023-06-22T00:22:57;7.70;;;1.80;;
4232;SDS011;2130;48.472;11.934;2023-06-22T00:25:25;7.50;;;1.93;;
4232;SDS011;2130;48.472;11.934;2023-06-22T00:27:55;8.77;;;2.03;;
4232;SDS011;2130;48.472;11.934;2023-06-22T00:30:23;6.90;;;1.53;;
4232;SDS011;2130;48.472;11.934;2023-06-22T00:32:52;8.70;;;1.90;;
4232;SDS011;2130;48.472;11.934;2023-06-22T00:35:20;8.50;;;1.63;;
4232;SDS011;2130;48.472;11.934;2023-06-22T00:37:49;8.13;;;2.00;;
4232;SDS011;2130;48.472;11.934;2023-06-22T00:40:24;8.70;;;2.10;;
4232;SDS011;2130;48.472;11.934;2023-06-22T00:42:54;7.40;;;1.67;;
4232;SDS011;2130;48.472;11.934;2023-06-22T00:45:26;7.53;;;1.63;;
4232;SDS011;2130;48.472;11.934;2023-06-22T00:47:55;8.70;;;1.80;;
4232;SDS011;2130;48.472;11.934;2023-06-22T00:50:26;8.33;;;2.33;;
4232;SDS011;2130;48.472;11.934;2023-06-22T00:52:57;10.63;;;1.90;;
4232;SDS011;2130;48.472;11.934;2023-06-22T00:55:27;8.43;;;1.70;;
4232;SDS011;2130;48.472;11.934;2023-06-22T00:57:58;10.70;;;1.73;;
4232;SDS011;2130;48.472;11.934;2023-06-22T01:00:26;8.23;;;1.97;;
4232;SDS011;2130;48.472;11.934;2023-06-22T01:02:55;7.50;;;1.70;;
4232;SDS011;2130;48.472;11.934;2023-06-22T01:05:24;9.50;;;2.23;;
4232;SDS011;2130;48.472;11.934;2023-06-22T01:07:56;8.50;;;1.80;;
4232;SDS011;2130;48.472;11.934;2023-06-22T01:10:31;8.43;;;1.67;;
4232;SDS011;2130;48.472;11.934;2023-06-22T01:13:06;9.13;;;1.80;;
4232;SDS011;2130;48.472;11.934;2023-06-22T01:15:39;8.97;;;2.00;;
4232;SDS011;2130;48.472;11.934;2023-06-22T01:18:12;7.60;;;1.70;;
4232;SDS011;2130;48.472;11.934;2023-06-22T01:20:43;11.23;;;2.00;;
4232;SDS011;2130;48.472;11.934;2023-06-22T01:23:13;7.57;;;1.90;;
4232;SDS011;2130;48.472;11.934;2023-06-22T01:25:48;7.67;;;1.50;;
4232;SDS011;2130;48.472;11.934;2023-06-22T01:28:42;8.33;;;1.67;;
4232;SDS011;2130;48.472;11.934;2023-06-22T01:31:12;8.03;;;1.60;;
4232;SDS011;2130;48.472;11.934;2023-06-22T01:33:42;9.63;;;1.63;;
4232;SDS011;2130;48.472;11.934;2023-06-22T01:36:12;8.90;;;2.00;;
4232;SDS011;2130;48.472;11.934;2023-06-22T01:38:41;13.90;;;2.53;;
4232;SDS011;2130;48.472;11.934;2023-06-22T01:41:10;9.30;;;1.67;;
4232;SDS011;2130;48.472;11.934;2023-06-22T01:43:39;9.90;;;2.43;;
4232;SDS011;2130;48.472;11.934;2023-06-22T01:46:09;7.80;;;1.53;;
4232;SDS011;2130;48.472;11.934;2023-06-22T01:48:41;8.63;;;2.07;;
4232;SDS011;2130;48.472;11.934;2023-06-22T01:51:09;8.53;;;2.00;;
4232;SDS011;2130;48.472;11.934;2023-06-22T01:56:33;8.30;;;1.83;;
4232;SDS011;2130;48.472;11.934;2023-06-22T01:59:04;8.80;;;2.03;;
4232;SDS011;2130;48.472;11.934;2023-06-22T02:01:40;8.63;;;1.53;;
4232;SDS011;2130;48.472;11.934;2023-06-22T02:04:12;10.00;;;2.37;;
4232;SDS011;2130;48.472;11.934;2023-06-22T02:06:42;8.23;;;1.87;;
4232;SDS011;2130;48.472;11.934;2023-06-22T02:09:11;10.30;;;2.03;;
4232;SDS011;2130;48.472;11.934;2023-06-22T02:11:42;9.10;;;1.80;;
4232;SDS011;2130;48.472;11.934;2023-06-22T02:14:13;8.80;;;2.07;;
4232;SDS011;2130;48.472;11.934;2023-06-22T02:16:47;10.43;;;2.10;;
4232;SDS011;2130;48.472;11.934;2023-06-22T02:19:22;9.33;;;2.00;;
4232;SDS011;2130;48.472;11.934;2023-06-22T02:21:52;8.77;;;1.80;;
4232;SDS011;2130;48.472;11.934;2023-06-22T02:24:20;8.90;;;1.80;;
4232;SDS011;2130;48.472;11.934;2023-06-22T02:26:50;8.90;;;1.83;;
4232;SDS011;2130;48.472;11.934;2023-06-22T02:29:18;12.53;;;2.10;;
4232;SDS011;2130;48.472;11.934;2023-06-22T02:31:47;9.67;;;2.23;;
4232;SDS011;2130;48.472;11.934;2023-06-22T02:34:16;8.97;;;2.30;;
4232;SDS011;2130;48.472;11.934;2023-06-22T02:36:45;10.90;;;1.97;;
4232;SDS011;2130;48.472;11.934;2023-06-22T02:39:21;12.10;;;2.63;;
4232;SDS011;2130;48.472;11.934;2023-06-22T02:41:50;8.80;;;2.47;;
4232;SDS011;2130;48.472;11.934;2023-06-22T02:44:19;9.00;;;1.87;;
4232;SDS011;2130;48.472;11.934;2023-06-22T02:46:49;9.30;;;1.50;;
4232;SDS011;2130;48.472;11.934;2023-06-22T02:49:17;9.53;;;2.00;;
4232;SDS011;2130;48.472;11.934;2023-06-22T02:51:47;8.90;;;1.80;;
4232;SDS011;2130;48.472;11.934;2023-06-22T02:54:19;10.97;;;2.00;;
4232;SDS011;2130;48.472;11.934;2023-06-22T02:56:50;9.80;;;2.10;;
4232;SDS011;2130;48.472;11.934;2023-06-22T02:59:20;9.07;;;1.97;;
4232;SDS011;2130;48.472;11.934;2023-06-22T03:01:59;9.30;;;1.87;;
4232;SDS011;2130;48.472;11.934;2023-06-22T03:04:29;10.27;;;2.03;;
4232;SDS011;2130;48.472;11.934;2023-06-22T03:06:59;8.80;;;2.23;;
4232;SDS011;2130;48.472;11.934;2023-06-22T03:09:29;10.43;;;2.10;;
4232;SDS011;2130;48.472;11.934;2023-06-22T03:11:57;9.90;;;2.07;;
4232;SDS011;2130;48.472;11.934;2023-06-22T03:14:33;10.63;;;2.07;;
4232;SDS011;2130;48.472;11.934;2023-06-22T03:17:05;9.83;;;2.07;;
4232;SDS011;2130;48.472;11.934;2023-06-22T03:19:33;7.90;;;1.73;;
4232;SDS011;2130;48.472;11.934;2023-06-22T03:22:02;11.43;;;3.20;;
4232;SDS011;2130;48.472;11.934;2023-06-22T03:24:30;8.60;;;2.10;;
4232;SDS011;2130;48.472;11.934;2023-06-22T03:26:58;9.80;;;2.10;;
4232;SDS011;2130;48.472;11.934;2023-06-22T03:29:28;11.57;;;2.27;;
4232;SDS011;2130;48.472;11.934;2023-06-22T03:31:57;10.00;;;2.23;;
4232;SDS011;2130;48.472;11.934;2023-06-22T03:34:27;10.20;;;2.23;;
4232;SDS011;2130;48.472;11.934;2023-06-22T03:37:00;12.80;;;2.30;;
4232;SDS011;2130;48.472;11.934;2023-06-22T03:39:28;9.50;;;1.97;;
4232;SDS011;2130;48.472;11.934;2023-06-22T03:41:57;9.80;;;2.03;;
4232;SDS011;2130;48.472;11.934;2023-06-22T03:44:26;9.33;;;2.23;;
4232;SDS011;2130;48.472;11.934;2023-06-22T03:46:54;10.13;;;2.10;;
4232;SDS011;2130;48.472;11.934;2023-06-22T03:49:22;10.80;;;2.10;;
4232;SDS011;2130;48.472;11.934;2023-06-22T03:51:52;8.77;;;2.23;;
4232;SDS011;2130;48.472;11.934;2023-06-22T03:54:20;9.43;;;2.20;;
4232;SDS011;2130;48.472;11.934;2023-06-22T03:56:48;13.27;;;2.23;;
4232;SDS011;2130;48.472;11.934;2023-06-22T03:59:16;10.83;;;2.47;;
4232;SDS011;2130;48.472;11.934;2023-06-22T04:01:45;11.80;;;2.90;;
4232;SDS011;2130;48.472;11.934;2023-06-22T04:04:13;10.73;;;2.60;;
4232;SDS011;2130;48.472;11.934;2023-06-22T04:06:41;10.23;;;2.67;;
4232;SDS011;2130;48.472;11.934;2023-06-22T04:09:11;10.67;;;3.17;;
4232;SDS011;2130;48.472;11.934;2023-06-22T04:11:39;10.50;;;2.40;;
4232;SDS011;2130;48.472;11.934;2023-06-22T04:14:08;9.30;;;2.30;;
4232;SDS011;2130;48.472;11.934;2023-06-22T04:16:36;13.33;;;2.47;;
4232;SDS011;2130;48.472;11.934;2023-06-22T04:19:04;8.80;;;2.23;;
4232;SDS011;2130;48.472;11.934;2023-06-22T04:21:32;11.07;;;2.90;;
4232;SDS011;2130;48.472;11.934;2023-06-22T04:24:01;11.50;;;3.00;;
4232;SDS011;2130;48.472;11.934;2023-06-22T04:26:30;10.13;;;2.47;;
4232;SDS011;2130;48.472;11.934;2023-06-22T04:29:03;9.40;;;2.80;;
4232;SDS011;2130;48.472;11.934;2023-06-22T04:31:32;9.70;;;2.17;;
4232;SDS011;2130;48.472;11.934;2023-06-22T04:34:03;12.80;;;2.87;;
4232;SDS011;2130;48.472;11.934;2023-06-22T04:36:34;8.90;;;2.30;;
4232;SDS011;2130;48.472;11.934;2023-06-22T04:39:06;10.80;;;2.80;;
4232;SDS011;2130;48.472;11.934;2023-06-22T04:41:37;9.17;;;2.40;;
4232;SDS011;2130;48.472;11.934;2023-06-22T04:44:12;8.63;;;2.20;;
4232;SDS011;2130;48.472;11.934;2023-06-22T04:46:40;10.40;;;2.13;;
4232;SDS011;2130;48.472;11.934;2023-06-22T04:49:09;10.53;;;2.17;;
4232;SDS011;2130;48.472;11.934;2023-06-22T04:51:39;13.47;;;3.73;;
4232;SDS011;2130;48.472;11.934;2023-06-22T04:54:08;9.77;;;2.47;;
4232;SDS011;2130;48.472;11.934;2023-06-22T04:56:39;10.47;;;2.57;;
4232;SDS011;2130;48.472;11.934;2023-06-22T04:59:07;10.30;;;2.70;;
4232;SDS011;2130;48.472;11.934;2023-06-22T05:01:41;9.83;;;2.43;;
4232;SDS011;2130;48.472;11.934;2023-06-22T05:04:10;11.90;;;2.80;;
4232;SDS011;2130;48.472;11.934;2023-06-22T05:06:38;8.83;;;2.00;;
4232;SDS011;2130;48.472;11.934;2023-06-22T05:09:07;9.60;;;2.20;;
4232;SDS011;2130;48.472;11.934;2023-06-22T05:11:35;12.17;;;2.47;;
4232;SDS011;2130;48.472;11.934;2023-06-22T05:14:04;12.40;;;2.40;;
4232;SDS011;2130;48.472;11.934;2023-06-22T05:16:34;9.80;;;2.37;;
4232;SDS011;2130;48.472;11.934;2023-06-22T05:19:04;8.37;;;1.90;;
4232;SDS011;2130;48.472;11.934;2023-06-22T05:21:32;7.30;;;1.57;;
4232;SDS011;2130;48.472;11.934;2023-06-22T05:24:01;7.40;;;1.70;;
4232;SDS011;2130;48.472;11.934;2023-06-22T05:26:30;8.40;;;1.90;;
4232;SDS011;2130;48.472;11.934;2023-06-22T05:28:59;8.70;;;2.07;;
4232;SDS011;2130;48.472;11.934;2023-06-22T05:31:30;8.10;;;1.83;;
4232;SDS011;2130;48.472;11.934;2023-06-22T05:33:58;8.53;;;1.77;;
4232;SDS011;2130;48.472;11.934;2023-06-22T05:36:27;8.90;;;2.10;;
4232;SDS011;2130;48.472;11.934;2023-06-22T05:38:56;9.73;;;2.10;;
4232;SDS011;2130;48.472;11.934;2023-06-22T05:41:24;9.73;;;1.77;;
4232;SDS011;2130;48.472;11.934;2023-06-22T05:43:52;7.87;;;2.00;;
4232;SDS011;2130;48.472;11.934;2023-06-22T05:46:21;8.83;;;2.00;;
4232;SDS011;2130;48.472;11.934;2023-06-22T05:48:50;7.57;;;2.10;;
4232;SDS011;2130;48.472;11.934;2023-06-22T05:51:18;9.20;;;2.17;;
4232;SDS011;2130;48.472;11.934;2023-06-22T05:53:47;9.60;;;1.90;;
4232;SDS011;2130;48.472;11.934;2023-06-22T05:56:16;8.17;;;2.20;;
4232;SDS011;2130;48.472;11.934;2023-06-22T05:58:45;6.50;;;1.40;;
4232;SDS011;2130;48.472;11.934;2023-06-22T06:01:13;8.30;;;2.23;;
4232;SDS011;2130;48.472;11.934;2023-06-22T06:03:42;8.60;;;1.80;;
4232;SDS011;2130;48.472;11.934;2023-06-22T06:06:12;8.00;;;2.03;;
4232;SDS011;2130;48.472;11.934;2023-06-22T06:08:40;9.23;;;2.27;;
4232;SDS011;2130;48.472;11.934;2023-06-22T06:11:09;9.30;;;1.87;;
4232;SDS011;2130;48.472;11.934;2023-06-22T06:13:37;7.50;;;1.97;;
4232;SDS011;2130;48.472;11.934;2023-06-22T06:16:12;10.50;;;2.20;;
4232;SDS011;2130;48.472;11.934;2023-06-22T06:18:40;9.20;;;1.90;;
4232;SDS011;2130;48.472;11.934;2023-06-22T06:21:08;7.83;;;1.73;;
4232;SDS011;2130;48.472;11.934;2023-06-22T06:26:32;8.33;;;1.60;;
4232;SDS011;2130;48.472;11.934;2023-06-22T06:29:02;7.80;;;1.67;;
4232;SDS011;2130;48.472;11.934;2023-06-22T06:31:30;7.13;;;2.00;;
4232;SDS011;2130;48.472;11.934;2023-06-22T06:33:59;5.83;;;1.60;;
4232;SDS011;2130;48.472;11.934;2023-06-22T06:36:27;7.77;;;2.20;;
4232;SDS011;2130;48.472;11.934;2023-06-22T06:38:55;6.60;;;1.53;;
4232;SDS011;2130;48.472;11.934;2023-06-22T06:41:25;6.50;;;1.63;;
4232;SDS011;2130;48.472;11.934;2023-06-22T06:43:54;6.23;;;1.43;;
4232;SDS011;2130;48.472;11.934;2023-06-22T06:46:22;8.73;;;1.67;;
4232;SDS011;2130;48.472;11.934;2023-06-22T06:48:50;8.50;;;1.57;;
4232;SDS011;2130;48.472;11.934;2023-06-22T06:51:18;6.73;;;1.40;;
4232;SDS011;2130;48.472;11.934;2023-06-22T06:53:47;6.40;;;1.60;;
4232;SDS011;2130;48.472;11.934;2023-06-22T06:56:15;7.50;;;1.57;;
4232;SDS011;2130;48.472;11.934;2023-06-22T06:58:45;5.40;;;1.60;;
4232;SDS011;2130;48.472;11.934;2023-06-22T07:01:13;6.00;;;1.20;;
4232;SDS011;2130;48.472;11.934;2023-06-22T07:03:42;6.00;;;1.13;;
4232;SDS011;2130;48.472;11.934;2023-06-22T07:06:10;8.40;;;1.63;;
4232;SDS011;2130;48.472;11.934;2023-06-22T07:08:38;6.13;;;1.43;;
4232;SDS011;2130;48.472;11.934;2023-06-22T07:11:07;6.07;;;1.40;;
4232;SDS011;2130;48.472;11.934;2023-06-22T07:13:35;5.37;;;1.17;;
4232;SDS011;2130;48.472;11.934;2023-06-22T07:16:05;7.00;;;1.30;;
4232;SDS011;2130;48.472;11.934;2023-06-22T07:18:33;7.67;;;1.47;;
4232;SDS011;2130;48.472;11.934;2023-06-22T07:21:02;5.77;;;1.20;;
4232;SDS011;2130;48.472;11.934;2023-06-22T07:23:33;6.90;;;1.20;;
4232;SDS011;2130;48.472;11.934;2023-06-22T07:26:03;8.10;;;1.20;;
4232;SDS011;2130;48.472;11.934;2023-06-22T07:28:35;5.97;;;1.30;;
4232;SDS011;2130;48.472;11.934;2023-06-22T07:31:06;5.83;;;1.20;;
4232;SDS011;2130;48.472;11.934;2023-06-22T07:33:37;4.53;;;1.20;;
4232;SDS011;2130;48.472;11.934;2023-06-22T07:36:06;5.73;;;1.20;;
4232;SDS011;2130;48.472;11.934;2023-06-22T07:38:35;5.40;;;1.20;;
4232;SDS011;2130;48.472;11.934;2023-06-22T07:41:03;5.97;;;1.20;;
4232;SDS011;2130;48.472;11.934;2023-06-22T07:43:32;4.80;;;0.97;;
4232;SDS011;2130;48.472;11.934;2023-06-22T07:46:03;7.43;;;1.30;;
4232;SDS011;2130;48.472;11.934;2023-06-22T07:48:33;5.40;;;1.00;;
4232;SDS011;2130;48.472;11.934;2023-06-22T07:51:04;5.63;;;1.13;;
4232;SDS011;2130;48.472;11.934;2023-06-22T07:53:33;6.37;;;1.40;;
4232;SDS011;2130;48.472;11.934;2023-06-22T07:56:02;5.97;;;1.50;;
4232;SDS011;2130;48.472;11.934;2023-06-22T07:58:33;5.63;;;1.20;;
4232;SDS011;2130;48.472;11.934;2023-06-22T08:01:02;5.70;;;1.20;;
4232;SDS011;2130;48.472;11.934;2023-06-22T08:03:30;7.10;;;1.50;;
4232;SDS011;2130;48.472;11.934;2023-06-22T08:06:00;5.03;;;1.00;;
4232;SDS011;2130;48.472;11.934;2023-06-22T08:08:29;6.53;;;1.63;;
4232;SDS011;2130;48.472;11.934;2023-06-22T08:10:57;6.07;;;1.33;;
4232;SDS011;2130;48.472;11.934;2023-06-22T08:13:25;5.40;;;1.10;;
4232;SDS011;2130;48.472;11.934;2023-06-22T08:15:53;5.37;;;1.40;;
4232;SDS011;2130;48.472;11.934;2023-06-22T08:18:22;4.60;;;1.07;;
4232;SDS011;2130;48.472;11.934;2023-06-22T08:20:50;4.80;;;1.13;;
4232;SDS011;2130;48.472;11.934;2023-06-22T08:23:20;5.80;;;1.67;;
4232;SDS011;2130;48.472;11.934;2023-06-22T08:25:48;5.27;;;1.10;;
4232;SDS011;2130;48.472;11.934;2023-06-22T08:28:17;5.77;;;1.37;;
4232;SDS011;2130;48.472;11.934;2023-06-22T08:30:45;6.20;;;1.27;;
4232;SDS011;2130;48.472;11.934;2023-06-22T08:33:14;6.63;;;1.30;;
4232;SDS011;2130;48.472;11.934;2023-06-22T08:35:53;6.00;;;1.10;;
4232;SDS011;2130;48.472;11.934;2023-06-22T08:38:23;4.50;;;1.00;;
4232;SDS011;2130;48.472;11.934;2023-06-22T08:40:52;5.97;;;1.30;;
4232;SDS011;2130;48.472;11.934;2023-06-22T08:43:20;5.50;;;1.50;;
4232;SDS011;2130;48.472;11.934;2023-06-22T08:45:48;12.20;;;1.37;;
4232;SDS011;2130;48.472;11.934;2023-06-22T08:48:16;5.63;;;1.50;;
4232;SDS011;2130;48.472;11.934;2023-06-22T08:50:45;4.87;;;1.30;;
4232;SDS011;2130;48.472;11.934;2023-06-22T08:53:13;5.03;;;1.40;;
4232;SDS011;2130;48.472;11.934;2023-06-22T08:55:43;4.87;;;1.20;;
4232;SDS011;2130;48.472;11.934;2023-06-22T08:58:11;4.60;;;1.17;;
4232;SDS011;2130;48.472;11.934;2023-06-22T09:00:40;6.57;;;1.40;;
4232;SDS011;2130;48.472;11.934;2023-06-22T09:03:08;4.20;;;1.07;;
4232;SDS011;2130;48.472;11.934;2023-06-22T09:05:37;5.60;;;1.50;;
4232;SDS011;2130;48.472;11.934;2023-06-22T09:08:05;6.53;;;1.40;;
4232;SDS011;2130;48.472;11.934;2023-06-22T09:10:34;4.93;;;1.20;;
4232;SDS011;2130;48.472;11.934;2023-06-22T09:13:04;6.30;;;1.30;;
4232;SDS011;2130;48.472;11.934;2023-06-22T09:15:32;4.90;;;1.43;;
4232;SDS011;2130;48.472;11.934;2023-06-22T09:18:01;5.47;;;1.60;;
4232;SDS011;2130;48.472;11.934;2023-06-22T09:20:30;7.80;;;1.63;;
4232;SDS011;2130;48.472;11.934;2023-06-22T09:22:58;5.13;;;1.40;;
4232;SDS011;2130;48.472;11.934;2023-06-22T09:25:27;4.90;;;1.17;;
4232;SDS011;2130;48.472;11.934;2023-06-22T09:27:55;6.40;;;1.70;;
4232;SDS011;2130;48.472;11.934;2023-06-22T09:30:25;6.77;;;1.30;;
4232;SDS011;2130;48.472;11.934;2023-06-22T09:32:54;5.33;;;1.40;;
4232;SDS011;2130;48.472;11.934;2023-06-22T09:35:22;5.60;;;1.30;;
4232;SDS011;2130;48.472;11.934;2023-06-22T09:37:51;4.90;;;1.10;;
4232;SDS011;2130;48.472;11.934;2023-06-22T09:40:22;5.20;;;1.30;;
4232;SDS011;2130;48.472;11.934;2023-06-22T09:42:50;6.17;;;1.30;;
4232;SDS011;2130;48.472;11.934;2023-06-22T09:45:18;5.87;;;1.40;;
4232;SDS011;2130;48.472;11.934;2023-06-22T09:47:48;4.83;;;1.40;;
4232;SDS011;2130;48.472;11.934;2023-06-22T09:50:16;5.03;;;1.03;;
4232;SDS011;2130;48.472;11.934;2023-06-22T09:52:44;6.40;;;1.50;;
4232;SDS011;2130;48.472;11.934;2023-06-22T09:55:17;5.57;;;1.73;;
4232;SDS011;2130;48.472;11.934;2023-06-22T09:58:16;7.50;;;1.80;;
4232;SDS011;2130;48.472;11.934;2023-06-22T10:00:44;5.17;;;1.37;;
4232;SDS011;2130;48.472;11.934;2023-06-22T10:03:12;6.70;;;1.80;;
4232;SDS011;2130;48.472;11.934;2023-06-22T10:05:40;4.30;;;1.23;;
4232;SDS011;2130;48.472;11.934;2023-06-22T10:08:12;6.10;;;1.40;;
4232;SDS011;2130;48.472;11.934;2023-06-22T10:10:40;6.03;;;1.50;;
4232;SDS011;2130;48.472;11.934;2023-06-22T10:13:09;7.23;;;1.67;;
4232;SDS011;2130;48.472;11.934;2023-06-22T10:15:39;5.00;;;1.60;;
4232;SDS011;2130;48.472;11.934;2023-06-22T10:18:07;5.97;;;1.30;;
4232;SDS011;2130;48.472;11.934;2023-06-22T10:20:35;5.27;;;1.27;;
4232;SDS011;2130;48.472;11.934;2023-06-22T10:23:03;6.93;;;1.50;;
4232;SDS011;2130;48.472;11.934;2023-06-22T10:25:31;4.40;;;1.20;;
4232;SDS011;2130;48.472;11.934;2023-06-22T10:28:00;5.77;;;1.37;;
4232;SDS011;2130;48.472;11.934;2023-06-22T10:30:28;5.17;;;1.60;;
4232;SDS011;2130;48.472;11.934;2023-06-22T10:32:57;5.43;;;1.53;;
4232;SDS011;2130;48.472;11.934;2023-06-22T10:35:25;4.80;;;1.30;;
4232;SDS011;2130;48.472;11.934;2023-06-22T10:37:54;5.40;;;1.50;;
4232;SDS011;2130;48.472;11.934;2023-06-22T10:40:23;6.57;;;1.43;;
4232;SDS011;2130;48.472;11.934;2023-06-22T10:42:51;5.77;;;1.67;;
4232;SDS011;2130;48.472;11.934;2023-06-22T10:45:19;7.43;;;1.57;;
4232;SDS011;2130;48.472;11.934;2023-06-22T10:47:47;5.80;;;1.37;;
4232;SDS011;2130;48.472;11.934;2023-06-22T10:50:17;4.33;;;1.30;;
4232;SDS011;2130;48.472;11.934;2023-06-22T10:52:46;4.67;;;1.60;;
4232;SDS011;2130;48.472;11.934;2023-06-22T10:55:14;5.10;;;1.60;;
4232;SDS011;2130;48.472;11.934;2023-06-22T10:57:42;4.43;;;1.27;;
4232;SDS011;2130;48.472;11.934;2023-06-22T11:00:14;6.00;;;2.10;;
4232;SDS011;2130;48.472;11.934;2023-06-22T11:02:42;5.03;;;1.57;;
4232;SDS011;2130;48.472;11.934;2023-06-22T11:05:11;3.90;;;1.57;;
4232;SDS011;2130;48.472;11.934;2023-06-22T11:07:42;5.33;;;1.40;;
4232;SDS011;2130;48.472;11.934;2023-06-22T11:10:12;3.83;;;1.37;;
4232;SDS011;2130;48.472;11.934;2023-06-22T11:12:41;4.73;;;1.10;;
4232;SDS011;2130;48.472;11.934;2023-06-22T11:15:10;6.60;;;1.40;;
4232;SDS011;2130;48.472;11.934;2023-06-22T11:17:38;5.80;;;1.30;;
4232;SDS011;2130;48.472;11.934;2023-06-22T11:20:07;5.63;;;1.50;;
4232;SDS011;2130;48.472;11.934;2023-06-22T11:22:38;8.00;;;1.40;;
4232;SDS011;2130;48.472;11.934;2023-06-22T11:25:08;5.07;;;1.40;;
4232;SDS011;2130;48.472;11.934;2023-06-22T11:27:38;6.00;;;1.70;;
4232;SDS011;2130;48.472;11.934;2023-06-22T11:30:07;5.77;;;1.53;;
4232;SDS011;2130;48.472;11.934;2023-06-22T11:32:35;5.90;;;1.53;;
4232;SDS011;2130;48.472;11.934;2023-06-22T11:35:04;4.30;;;1.57;;
4232;SDS011;2130;48.472;11.934;2023-06-22T11:37:32;5.07;;;1.50;;
4232;SDS011;2130;48.472;11.934;2023-06-22T11:40:00;7.20;;;1.43;;
4232;SDS011;2130;48.472;11.934;2023-06-22T11:42:34;4.90;;;1.20;;
4232;SDS011;2130;48.472;11.934;2023-06-22T11:45:04;6.67;;;1.87;;
4232;SDS011;2130;48.472;11.934;2023-06-22T11:47:33;3.80;;;1.17;;
4232;SDS011;2130;48.472;11.934;2023-06-22T11:50:01;5.93;;;1.47;;
4232;SDS011;2130;48.472;11.934;2023-06-22T11:52:30;4.77;;;1.37;;
4232;SDS011;2130;48.472;11.934;2023-06-22T11:54:58;6.00;;;1.80;;
4232;SDS011;2130;48.472;11.934;2023-06-22T11:57:26;5.10;;;1.20;;
4232;SDS011;2130;48.472;11.934;2023-06-22T11:59:56;3.63;;;1.10;;
4232;SDS011;2130;48.472;11.934;2023-06-22T12:02:24;5.13;;;1.57;;
4232;SDS011;2130;48.472;11.934;2023-06-22T12:04:52;5.03;;;1.60;;
4232;SDS011;2130;48.472;11.934;2023-06-22T12:07:22;7.03;;;1.40;;
4232;SDS011;2130;48.472;11.934;2023-06-22T12:09:51;4.70;;;1.55;;
4232;SDS011;2130;48.472;11.934;2023-06-22T12:12:19;5.90;;;2.40;;
4232;SDS011;2130;48.472;11.934;2023-06-22T12:14:47;4.97;;;1.30;;
4232;SDS011;2130;48.472;11.934;2023-06-22T12:17:16;4.60;;;1.30;;
4232;SDS011;2130;48.472;11.934;2023-06-22T12:19:44;4.90;;;1.27;;
4232;SDS011;2130;48.472;11.934;2023-06-22T12:22:12;6.10;;;1.48;;
4232;SDS011;2130;48.472;11.934;2023-06-22T12:24:40;5.00;;;1.67;;
4232;SDS011;2130;48.472;11.934;2023-06-22T12:27:08;4.65;;;1.50;;
4232;SDS011;2130;48.472;11.934;2023-06-22T12:29:36;7.18;;;1.75;;
4232;SDS011;2130;48.472;11.934;2023-06-22T12:32:05;5.75;;;1.80;;
4232;SDS011;2130;48.472;11.934;2023-06-22T12:34:35;4.33;;;1.63;;
4232;SDS011;2130;48.472;11.934;2023-06-22T12:37:03;4.95;;;1.48;;
4232;SDS011;2130;48.472;11.934;2023-06-22T12:39:32;4.72;;;1.45;;
4232;SDS011;2130;48.472;11.934;2023-06-22T12:42:00;4.45;;;1.50;;
4232;SDS011;2130;48.472;11.934;2023-06-22T12:44:28;3.97;;;1.25;;
4232;SDS011;2130;48.472;11.934;2023-06-22T12:46:56;5.18;;;1.83;;
4232;SDS011;2130;48.472;11.934;2023-06-22T12:49:24;5.18;;;1.40;;
4232;SDS011;2130;48.472;11.934;2023-06-22T12:51:54;3.80;;;1.02;;
4232;SDS011;2130;48.472;11.934;2023-06-22T12:54:22;4.75;;;1.45;;
4232;SDS011;2130;48.472;11.934;2023-06-22T12:56:50;4.45;;;1.38;;
4232;SDS011;2130;48.472;11.934;2023-06-22T12:59:19;4.88;;;1.90;;
4232;SDS011;2130;48.472;11.934;2023-06-22T13:01:47;4.63;;;1.45;;
4232;SDS011;2130;48.472;11.934;2023-06-22T13:04:15;6.13;;;1.50;;
4232;SDS011;2130;48.472;11.934;2023-06-22T13:06:45;4.53;;;1.17;;
4232;SDS011;2130;48.472;11.934;2023-06-22T13:09:19;3.65;;;1.30;;
4232;SDS011;2130;48.472;11.934;2023-06-22T13:11:47;4.97;;;1.52;;
4232;SDS011;2130;48.472;11.934;2023-06-22T13:14:15;5.32;;;1.90;;
4232;SDS011;2130;48.472;11.934;2023-06-22T13:16:43;6.03;;;1.30;;
4232;SDS011;2130;48.472;11.934;2023-06-22T13:19:12;4.05;;;1.58;;
4232;SDS011;2130;48.472;11.934;2023-06-22T13:21:40;5.97;;;1.63;;
4232;SDS011;2130;48.472;11.934;2023-06-22T13:24:08;4.70;;;1.60;;
4232;SDS011;2130;48.472;11.934;2023-06-22T13:26:38;3.78;;;1.33;;
4232;SDS011;2130;48.472;11.934;2023-06-22T13:29:06;4.45;;;1.70;;
4232;SDS011;2130;48.472;11.934;2023-06-22T13:31:34;4.82;;;1.50;;
4232;SDS011;2130;48.472;11.934;2023-06-22T13:34:02;5.95;;;1.50;;
4232;SDS011;2130;48.472;11.934;2023-06-22T13:36:30;4.53;;;1.58;;
4232;SDS011;2130;48.472;11.934;2023-06-22T13:38:59;5.40;;;1.67;;
4232;SDS011;2130;48.472;11.934;2023-06-22T13:41:27;5.05;;;1.58;;
4232;SDS011;2130;48.472;11.934;2023-06-22T13:43:56;4.25;;;1.42;;
4232;SDS011;2130;48.472;11.934;2023-06-22T13:46:24;6.82;;;1.73;;
4232;SDS011;2130;48.472;11.934;2023-06-22T13:48:53;5.80;;;1.40;;
4232;SDS011;2130;48.472;11.934;2023-06-22T13:51:22;4.72;;;1.70;;
4232;SDS011;2130;48.472;11.934;2023-06-22T13:53:50;3.88;;;1.23;;
4232;SDS011;2130;48.472;11.934;2023-06-22T13:56:18;4.25;;;1.38;;
4232;SDS011;2130;48.472;11.934;2023-06-22T13:58:47;4.53;;;1.40;;
4232;SDS011;2130;48.472;11.934;2023-06-22T14:01:16;6.60;;;1.45;;
4232;SDS011;2130;48.472;11.934;2023-06-22T14:03:44;5.97;;;1.60;;
4232;SDS011;2130;48.472;11.934;2023-06-22T14:06:13;8.75;;;1.67;;
4232;SDS011;2130;48.472;11.934;2023-06-22T14:08:41;5.57;;;1.48;;
4232;SDS011;2130;48.472;11.934;2023-06-22T14:11:09;4.05;;;1.48;;
4232;SDS011;2130;48.472;11.934;2023-06-22T14:13:37;5.22;;;1.50;;
4232;SDS011;2130;48.472;11.934;2023-06-22T14:16:08;5.15;;;1.77;;
4232;SDS011;2130;48.472;11.934;2023-06-22T14:18:38;3.97;;;1.58;;
4232;SDS011;2130;48.472;11.934;2023-06-22T14:21:06;6.78;;;1.60;;
4232;SDS011;2130;48.472;11.934;2023-06-22T14:23:34;8.27;;;1.67;;
4232;SDS011;2130;48.472;11.934;2023-06-22T14:26:04;3.92;;;1.45;;
4232;SDS011;2130;48.472;11.934;2023-06-22T14:28:32;3.40;;;1.20;;
4232;SDS011;2130;48.472;11.934;2023-06-22T14:31:00;4.85;;;1.40;;
4232;SDS011;2130;48.472;11.934;2023-06-22T14:33:28;4.80;;;1.40;;
4232;SDS011;2130;48.472;11.934;2023-06-22T14:35:58;4.28;;;1.50;;
4232;SDS011;2130;48.472;11.934;2023-06-22T14:38:26;6.22;;;1.70;;
4232;SDS011;2130;48.472;11.934;2023-06-22T14:40:54;5.95;;;1.13;;
4232;SDS011;2130;48.472;11.934;2023-06-22T14:43:43;4.28;;;1.38;;
4232;SDS011;2130;48.472;11.934;2023-06-22T14:46:15;3.67;;;1.30;;
4232;SDS011;2130;48.472;11.934;2023-06-22T14:48:43;8.80;;;1.80;;
4232;SDS011;2130;48.472;11.934;2023-06-22T14:51:13;3.83;;;1.27;;
4232;SDS011;2130;48.472;11.934;2023-06-22T14:53:44;5.38;;;1.88;;
4232;SDS011;2130;48.472;11.934;2023-06-22T14:56:12;3.90;;;1.42;;
4232;SDS011;2130;48.472;11.934;2023-06-22T14:58:42;8.82;;;1.52;;
4232;SDS011;2130;48.472;11.934;2023-06-22T15:01:12;4.40;;;1.55;;
4232;SDS011;2130;48.472;11.934;2023-06-22T15:03:41;3.55;;;1.45;;
4232;SDS011;2130;48.472;11.934;2023-06-22T15:06:09;5.10;;;1.50;;
4232;SDS011;2130;48.472;11.934;2023-06-22T15:08:39;5.32;;;1.20;;
4232;SDS011;2130;48.472;11.934;2023-06-22T15:11:07;4.25;;;1.63;;
4232;SDS011;2130;48.472;11.934;2023-06-22T15:13:38;3.92;;;1.40;;
4232;SDS011;2130;48.472;11.934;2023-06-22T15:16:07;4.38;;;1.60;;
4232;SDS011;2130;48.472;11.934;2023-06-22T15:18:35;5.80;;;1.60;;